sensor_id;sensor_type;location;lat;lon;timestamp;temperature;humidity
12156;DHT22;6141;49.092;8.516;2023-05-08T00:00:27;19.60;51.40
12156;DHT22;6141;49.092;8.516;2023-05-08T00:02:55;19.60;51.30
12156;DHT22;6141;49.092;8.516;2023-05-08T00:05:25;19.60;51.30
12156;DHT22;6141;49.092;8.516;2023-05-08T00:07:54;19.50;52.20
12156;DHT22;6141;49.092;8.516;2023-05-08T00:10:27;19.50;51.80
12156;DHT22;6141;49.092;8.516;2023-05-08T00:12:56;19.50;52.10
12156;DHT22;6141;49.092;8.516;2023-05-08T00:15:25;19.50;52.70
12156;DHT22;6141;49.092;8.516;2023-05-08T00:17:53;19.40;52.40
12156;DHT22;6141;49.092;8.516;2023-05-08T00:20:22;19.20;53.70
12156;DHT22;6141;49.092;8.516;2023-05-08T00:22:52;19.20;53.20
12156;DHT22;6141;49.092;8.516;2023-05-08T00:25:20;19.20;54.00
12156;DHT22;6141;49.092;8.516;2023-05-08T00:27:48;19.30;53.90
12156;DHT22;6141;49.092;8.516;2023-05-08T00:30:18;19.30;53.20
12156;DHT22;6141;49.092;8.516;2023-05-08T00:32:47;19.30;52.00
12156;DHT22;6141;49.092;8.516;2023-05-08T00:35:15;19.40;52.10
12156;DHT22;6141;49.092;8.516;2023-05-08T00:37:44;19.40;52.60
12156;DHT22;6141;49.092;8.516;2023-05-08T00:40:14;19.10;53.00
12156;DHT22;6141;49.092;8.516;2023-05-08T00:42:42;19.10;53.00
12156;DHT22;6141;49.092;8.516;2023-05-08T00:45:11;19.20;52.90
12156;DHT22;6141;49.092;8.516;2023-05-08T00:47:40;19.20;52.70
12156;DHT22;6141;49.092;8.516;2023-05-08T00:50:09;19.30;52.70
12156;DHT22;6141;49.092;8.516;2023-05-08T00:52:38;19.30;52.00
12156;DHT22;6141;49.092;8.516;2023-05-08T00:55:07;19.40;51.80
12156;DHT22;6141;49.092;8.516;2023-05-08T00:57:38;19.40;52.10
12156;DHT22;6141;49.092;8.516;2023-05-08T01:00:07;19.40;52.30
12156;DHT22;6141;49.092;8.516;2023-05-08T01:02:38;19.40;52.50
12156;DHT22;6141;49.092;8.516;2023-05-08T01:05:09;19.40;51.70
12156;DHT22;6141;49.092;8.516;2023-05-08T01:07:38;19.30;52.60
12156;DHT22;6141;49.092;8.516;2023-05-08T01:10:07;19.30;52.40
12156;DHT22;6141;49.092;8.516;2023-05-08T01:12:46;19.30;53.30
12156;DHT22;6141;49.092;8.516;2023-05-08T01:15:25;19.30;52.60
12156;DHT22;6141;49.092;8.516;2023-05-08T01:18:02;19.30;52.10
12156;DHT22;6141;49.092;8.516;2023-05-08T01:20:39;19.30;52.40
12156;DHT22;6141;49.092;8.516;2023-05-08T01:23:25;19.20;52.30
12156;DHT22;6141;49.092;8.516;2023-05-08T01:32:13;19.00;53.30
12156;DHT22;6141;49.092;8.516;2023-05-08T01:34:51;19.10;53.10
12156;DHT22;6141;49.092;8.516;2023-05-08T01:37:28;19.10;53.10
12156;DHT22;6141;49.092;8.516;2023-05-08T01:40:07;19.20;52.70
12156;DHT22;6141;49.092;8.516;2023-05-08T01:42:47;19.20;52.70
12156;DHT22;6141;49.092;8.516;2023-05-08T01:45:21;19.20;52.90
12156;DHT22;6141;49.092;8.516;2023-05-08T01:47:59;19.20;52.60
12156;DHT22;6141;49.092;8.516;2023-05-08T01:50:32;19.10;52.60
12156;DHT22;6141;49.092;8.516;2023-05-08T01:53:07;19.10;52.60
12156;DHT22;6141;49.092;8.516;2023-05-08T01:55:39;19.10;52.40
12156;DHT22;6141;49.092;8.516;2023-05-08T01:58:10;19.10;52.60
12156;DHT22;6141;49.092;8.516;2023-05-08T02:00:40;19.10;53.10
12156;DHT22;6141;49.092;8.516;2023-05-08T02:03:13;19.10;52.80
12156;DHT22;6141;49.092;8.516;2023-05-08T02:05:45;19.10;53.10
12156;DHT22;6141;49.092;8.516;2023-05-08T02:08:14;19.00;53.20
12156;DHT22;6141;49.092;8.516;2023-05-08T02:10:45;19.10;53.80
12156;DHT22;6141;49.092;8.516;2023-05-08T02:13:15;19.10;53.40
12156;DHT22;6141;49.092;8.516;2023-05-08T02:15:47;19.10;53.20
12156;DHT22;6141;49.092;8.516;2023-05-08T02:18:20;19.00;53.70
12156;DHT22;6141;49.092;8.516;2023-05-08T02:20:58;19.00;53.20
12156;DHT22;6141;49.092;8.516;2023-05-08T02:23:32;19.10;53.20
12156;DHT22;6141;49.092;8.516;2023-05-08T02:26:03;19.10;52.70
12156;DHT22;6141;49.092;8.516;2023-05-08T02:28:36;19.10;52.70
12156;DHT22;6141;49.092;8.516;2023-05-08T02:31:06;19.00;53.70
12156;DHT22;6141;49.092;8.516;2023-05-08T02:33:39;19.00;53.70
12156;DHT22;6141;49.092;8.516;2023-05-08T02:36:10;18.80;53.50
12156;DHT22;6141;49.092;8.516;2023-05-08T02:38:43;18.90;53.70
12156;DHT22;6141;49.092;8.516;2023-05-08T02:41:15;18.70;53.50
12156;DHT22;6141;49.092;8.516;2023-05-08T02:43:45;18.50;54.80
12156;DHT22;6141;49.092;8.516;2023-05-08T02:46:17;18.50;54.70
12156;DHT22;6141;49.092;8.516;2023-05-08T02:48:54;18.60;54.10
12156;DHT22;6141;49.092;8.516;2023-05-08T02:51:28;18.70;53.50
12156;DHT22;6141;49.092;8.516;2023-05-08T02:54:07;18.80;54.10
12156;DHT22;6141;49.092;8.516;2023-05-08T02:56:38;18.80;54.10
12156;DHT22;6141;49.092;8.516;2023-05-08T02:59:15;18.90;53.70
12156;DHT22;6141;49.092;8.516;2023-05-08T03:01:50;19.00;53.70
12156;DHT22;6141;49.092;8.516;2023-05-08T03:04:25;19.00;53.50
12156;DHT22;6141;49.092;8.516;2023-05-08T03:06:56;19.00;53.70
12156;DHT22;6141;49.092;8.516;2023-05-08T03:09:40;19.10;53.00
12156;DHT22;6141;49.092;8.516;2023-05-08T03:12:14;19.10;53.90
12156;DHT22;6141;49.092;8.516;2023-05-08T03:14:50;18.90;53.70
12156;DHT22;6141;49.092;8.516;2023-05-08T03:17:21;18.90;53.70
12156;DHT22;6141;49.092;8.516;2023-05-08T03:19:56;18.90;53.70
12156;DHT22;6141;49.092;8.516;2023-05-08T03:22:28;19.00;53.70
12156;DHT22;6141;49.092;8.516;2023-05-08T03:25:02;18.90;53.70
12156;DHT22;6141;49.092;8.516;2023-05-08T03:27:33;18.70;53.50
12156;DHT22;6141;49.092;8.516;2023-05-08T03:30:04;18.60;54.50
12156;DHT22;6141;49.092;8.516;2023-05-08T03:32:37;18.60;54.50
12156;DHT22;6141;49.092;8.516;2023-05-08T03:35:08;18.70;54.00
12156;DHT22;6141;49.092;8.516;2023-05-08T03:37:37;18.70;54.50
12156;DHT22;6141;49.092;8.516;2023-05-08T03:40:07;18.80;53.90
12156;DHT22;6141;49.092;8.516;2023-05-08T03:42:39;18.80;53.50
12156;DHT22;6141;49.092;8.516;2023-05-08T03:45:10;18.80;53.60
12156;DHT22;6141;49.092;8.516;2023-05-08T03:47:39;18.90;53.70
12156;DHT22;6141;49.092;8.516;2023-05-08T03:50:12;18.90;53.70
12156;DHT22;6141;49.092;8.516;2023-05-08T03:52:41;18.90;53.70
12156;DHT22;6141;49.092;8.516;2023-05-08T03:55:10;18.90;53.70
12156;DHT22;6141;49.092;8.516;2023-05-08T03:57:44;19.00;53.70
12156;DHT22;6141;49.092;8.516;2023-05-08T04:00:22;19.00;53.70
12156;DHT22;6141;49.092;8.516;2023-05-08T04:02:56;19.00;53.80
12156;DHT22;6141;49.092;8.516;2023-05-08T04:05:34;19.00;53.70
12156;DHT22;6141;49.092;8.516;2023-05-08T04:08:11;19.00;53.70
12156;DHT22;6141;49.092;8.516;2023-05-08T04:10:47;19.00;53.70
12156;DHT22;6141;49.092;8.516;2023-05-08T04:13:20;19.10;53.90
12156;DHT22;6141;49.092;8.516;2023-05-08T04:15:51;19.00;53.80
12156;DHT22;6141;49.092;8.516;2023-05-08T04:18:27;19.10;53.90
12156;DHT22;6141;49.092;8.516;2023-05-08T04:21:01;19.10;53.90
12156;DHT22;6141;49.092;8.516;2023-05-08T04:23:31;19.00;53.80
12156;DHT22;6141;49.092;8.516;2023-05-08T04:26:02;19.00;53.70
12156;DHT22;6141;49.092;8.516;2023-05-08T04:28:32;19.00;53.70
12156;DHT22;6141;49.092;8.516;2023-05-08T04:31:02;19.00;53.70
12156;DHT22;6141;49.092;8.516;2023-05-08T04:33:33;19.10;53.90
12156;DHT22;6141;49.092;8.516;2023-05-08T04:36:10;19.00;53.90
12156;DHT22;6141;49.092;8.516;2023-05-08T04:38:41;19.10;53.90
12156;DHT22;6141;49.092;8.516;2023-05-08T04:41:11;19.10;53.90
12156;DHT22;6141;49.092;8.516;2023-05-08T04:43:39;19.10;53.90
12156;DHT22;6141;49.092;8.516;2023-05-08T04:46:09;19.00;54.50
12156;DHT22;6141;49.092;8.516;2023-05-08T04:48:38;18.80;55.90
12156;DHT22;6141;49.092;8.516;2023-05-08T04:51:09;18.80;56.20
12156;DHT22;6141;49.092;8.516;2023-05-08T04:53:38;18.80;56.00
12156;DHT22;6141;49.092;8.516;2023-05-08T04:56:07;18.60;57.30
12156;DHT22;6141;49.092;8.516;2023-05-08T04:58:35;18.50;57.30
12156;DHT22;6141;49.092;8.516;2023-05-08T05:01:04;18.50;57.50
12156;DHT22;6141;49.092;8.516;2023-05-08T05:03:33;18.50;58.40
12156;DHT22;6141;49.092;8.516;2023-05-08T05:06:01;18.30;59.20
12156;DHT22;6141;49.092;8.516;2023-05-08T05:08:34;18.40;59.30
12156;DHT22;6141;49.092;8.516;2023-05-08T05:11:03;18.40;59.30
12156;DHT22;6141;49.092;8.516;2023-05-08T05:13:35;18.40;59.30
12156;DHT22;6141;49.092;8.516;2023-05-08T05:16:03;18.40;59.30
12156;DHT22;6141;49.092;8.516;2023-05-08T05:18:32;18.40;59.20
12156;DHT22;6141;49.092;8.516;2023-05-08T05:21:00;18.60;58.50
12156;DHT22;6141;49.092;8.516;2023-05-08T05:23:31;18.70;58.10
12156;DHT22;6141;49.092;8.516;2023-05-08T05:25:59;18.70;57.90
12156;DHT22;6141;49.092;8.516;2023-05-08T05:28:29;18.70;58.20
12156;DHT22;6141;49.092;8.516;2023-05-08T05:30:59;18.80;58.00
12156;DHT22;6141;49.092;8.516;2023-05-08T05:33:28;18.70;57.70
12156;DHT22;6141;49.092;8.516;2023-05-08T05:35:57;18.80;57.60
12156;DHT22;6141;49.092;8.516;2023-05-08T05:38:26;18.70;57.90
12156;DHT22;6141;49.092;8.516;2023-05-08T05:40:56;18.70;58.40
12156;DHT22;6141;49.092;8.516;2023-05-08T05:43:25;18.70;58.40
12156;DHT22;6141;49.092;8.516;2023-05-08T05:45:53;18.30;60.50
12156;DHT22;6141;49.092;8.516;2023-05-08T05:48:23;18.20;61.70
12156;DHT22;6141;49.092;8.516;2023-05-08T05:50:52;18.20;61.40
12156;DHT22;6141;49.092;8.516;2023-05-08T05:53:20;18.20;61.50
12156;DHT22;6141;49.092;8.516;2023-05-08T05:55:49;18.30;61.10
12156;DHT22;6141;49.092;8.516;2023-05-08T05:58:20;18.30;61.10
12156;DHT22;6141;49.092;8.516;2023-05-08T06:00:48;18.40;60.30
12156;DHT22;6141;49.092;8.516;2023-05-08T06:03:17;18.40;60.50
12156;DHT22;6141;49.092;8.516;2023-05-08T06:05:46;18.50;60.20
12156;DHT22;6141;49.092;8.516;2023-05-08T06:08:16;18.60;59.50
12156;DHT22;6141;49.092;8.516;2023-05-08T06:10:45;18.60;59.50
12156;DHT22;6141;49.092;8.516;2023-05-08T06:13:13;18.60;59.50
12156;DHT22;6141;49.092;8.516;2023-05-08T06:15:43;18.60;59.20
12156;DHT22;6141;49.092;8.516;2023-05-08T06:18:13;18.70;58.70
12156;DHT22;6141;49.092;8.516;2023-05-08T06:20:42;18.80;58.30
12156;DHT22;6141;49.092;8.516;2023-05-08T06:23:10;18.70;58.60
12156;DHT22;6141;49.092;8.516;2023-05-08T06:25:40;18.80;58.20
12156;DHT22;6141;49.092;8.516;2023-05-08T06:28:08;18.80;58.20
12156;DHT22;6141;49.092;8.516;2023-05-08T06:30:36;18.80;58.50
12156;DHT22;6141;49.092;8.516;2023-05-08T06:33:09;18.70;59.00
12156;DHT22;6141;49.092;8.516;2023-05-08T06:35:39;18.70;59.80
12156;DHT22;6141;49.092;8.516;2023-05-08T06:38:07;18.60;59.80
12156;DHT22;6141;49.092;8.516;2023-05-08T06:40:40;18.70;59.60
12156;DHT22;6141;49.092;8.516;2023-05-08T06:43:10;18.70;60.00
12156;DHT22;6141;49.092;8.516;2023-05-08T06:45:39;18.70;59.60
12156;DHT22;6141;49.092;8.516;2023-05-08T06:48:08;18.70;59.70
12156;DHT22;6141;49.092;8.516;2023-05-08T06:50:37;18.70;60.50
12156;DHT22;6141;49.092;8.516;2023-05-08T06:53:09;18.60;60.60
12156;DHT22;6141;49.092;8.516;2023-05-08T06:55:41;18.60;61.10
12156;DHT22;6141;49.092;8.516;2023-05-08T06:58:10;18.70;60.80
12156;DHT22;6141;49.092;8.516;2023-05-08T07:00:39;18.80;59.70
12156;DHT22;6141;49.092;8.516;2023-05-08T07:03:10;18.80;59.90
12156;DHT22;6141;49.092;8.516;2023-05-08T07:05:39;18.70;59.70
12156;DHT22;6141;49.092;8.516;2023-05-08T07:08:07;18.70;60.70
12156;DHT22;6141;49.092;8.516;2023-05-08T07:10:36;18.50;61.80
12156;DHT22;6141;49.092;8.516;2023-05-08T07:13:04;18.50;61.70
12156;DHT22;6141;49.092;8.516;2023-05-08T07:15:34;18.60;61.60
12156;DHT22;6141;49.092;8.516;2023-05-08T07:18:02;18.70;61.60
12156;DHT22;6141;49.092;8.516;2023-05-08T07:20:32;18.90;60.90
12156;DHT22;6141;49.092;8.516;2023-05-08T07:23:02;18.80;60.80
12156;DHT22;6141;49.092;8.516;2023-05-08T07:25:31;18.30;62.20
12156;DHT22;6141;49.092;8.516;2023-05-08T07:28:00;18.10;64.50
12156;DHT22;6141;49.092;8.516;2023-05-08T07:30:29;18.00;66.10
12156;DHT22;6141;49.092;8.516;2023-05-08T07:32:57;17.90;65.90
12156;DHT22;6141;49.092;8.516;2023-05-08T07:35:29;18.20;66.00
12156;DHT22;6141;49.092;8.516;2023-05-08T07:37:59;18.30;65.30
12156;DHT22;6141;49.092;8.516;2023-05-08T07:40:28;18.30;64.40
12156;DHT22;6141;49.092;8.516;2023-05-08T07:42:57;18.40;64.40
12156;DHT22;6141;49.092;8.516;2023-05-08T07:45:25;18.50;64.50
12156;DHT22;6141;49.092;8.516;2023-05-08T07:47:56;18.40;64.40
12156;DHT22;6141;49.092;8.516;2023-05-08T07:50:25;18.50;64.50
12156;DHT22;6141;49.092;8.516;2023-05-08T07:52:54;18.40;64.40
12156;DHT22;6141;49.092;8.516;2023-05-08T07:55:24;18.20;65.00
12156;DHT22;6141;49.092;8.516;2023-05-08T07:57:53;18.30;64.30
12156;DHT22;6141;49.092;8.516;2023-05-08T08:00:22;18.50;64.50
12156;DHT22;6141;49.092;8.516;2023-05-08T08:02:53;18.70;63.80
12156;DHT22;6141;49.092;8.516;2023-05-08T08:05:22;18.70;63.00
12156;DHT22;6141;49.092;8.516;2023-05-08T08:07:50;18.50;64.50
12156;DHT22;6141;49.092;8.516;2023-05-08T08:10:19;18.40;64.40
12156;DHT22;6141;49.092;8.516;2023-05-08T08:12:49;18.40;65.10
12156;DHT22;6141;49.092;8.516;2023-05-08T08:15:17;18.40;64.80
12156;DHT22;6141;49.092;8.516;2023-05-08T08:17:46;18.60;64.60
12156;DHT22;6141;49.092;8.516;2023-05-08T08:20:15;18.50;64.50
12156;DHT22;6141;49.092;8.516;2023-05-08T08:22:44;18.50;64.50
12156;DHT22;6141;49.092;8.516;2023-05-08T08:25:12;18.50;64.50
12156;DHT22;6141;49.092;8.516;2023-05-08T08:27:41;18.70;64.70
12156;DHT22;6141;49.092;8.516;2023-05-08T08:30:12;18.80;64.20
12156;DHT22;6141;49.092;8.516;2023-05-08T08:32:45;18.90;64.70
12156;DHT22;6141;49.092;8.516;2023-05-08T08:35:14;18.80;64.30
12156;DHT22;6141;49.092;8.516;2023-05-08T08:37:43;18.80;63.90
12156;DHT22;6141;49.092;8.516;2023-05-08T08:40:13;18.90;63.90
12156;DHT22;6141;49.092;8.516;2023-05-08T08:42:42;19.00;63.90
12156;DHT22;6141;49.092;8.516;2023-05-08T08:45:11;19.20;62.80
12156;DHT22;6141;49.092;8.516;2023-05-08T08:47:42;19.20;62.60
12156;DHT22;6141;49.092;8.516;2023-05-08T08:50:13;19.10;62.80
12156;DHT22;6141;49.092;8.516;2023-05-08T08:52:54;18.80;64.70
12156;DHT22;6141;49.092;8.516;2023-05-08T08:55:25;18.70;65.50
12156;DHT22;6141;49.092;8.516;2023-05-08T08:58:02;18.80;64.70
12156;DHT22;6141;49.092;8.516;2023-05-08T09:00:36;18.80;64.90
12156;DHT22;6141;49.092;8.516;2023-05-08T09:03:06;18.70;66.90
12156;DHT22;6141;49.092;8.516;2023-05-08T09:05:35;18.70;67.00
12156;DHT22;6141;49.092;8.516;2023-05-08T09:08:05;18.70;67.30
12156;DHT22;6141;49.092;8.516;2023-05-08T09:10:34;18.80;66.20
12156;DHT22;6141;49.092;8.516;2023-05-08T09:13:03;18.80;66.20
12156;DHT22;6141;49.092;8.516;2023-05-08T09:15:32;18.80;66.10
12156;DHT22;6141;49.092;8.516;2023-05-08T09:18:02;18.80;65.80
12156;DHT22;6141;49.092;8.516;2023-05-08T09:20:30;19.20;64.40
12156;DHT22;6141;49.092;8.516;2023-05-08T09:23:00;19.50;63.60
12156;DHT22;6141;49.092;8.516;2023-05-08T09:25:43;19.60;61.40
12156;DHT22;6141;49.092;8.516;2023-05-08T09:28:23;19.70;61.60
12156;DHT22;6141;49.092;8.516;2023-05-08T09:31:01;19.80;60.70
12156;DHT22;6141;49.092;8.516;2023-05-08T09:33:43;19.90;60.70
12156;DHT22;6141;49.092;8.516;2023-05-08T09:36:25;19.90;58.40
12156;DHT22;6141;49.092;8.516;2023-05-08T09:38:59;19.80;60.50
12156;DHT22;6141;49.092;8.516;2023-05-08T09:41:37;19.70;61.30
12156;DHT22;6141;49.092;8.516;2023-05-08T09:44:17;19.90;59.50
12156;DHT22;6141;49.092;8.516;2023-05-08T09:47:12;19.90;60.70
12156;DHT22;6141;49.092;8.516;2023-05-08T09:49:59;19.90;60.60
12156;DHT22;6141;49.092;8.516;2023-05-08T09:52:38;19.80;60.50
12156;DHT22;6141;49.092;8.516;2023-05-08T09:55:22;19.90;59.60
12156;DHT22;6141;49.092;8.516;2023-05-08T09:58:01;19.70;60.60
12156;DHT22;6141;49.092;8.516;2023-05-08T10:00:38;19.60;61.70
12156;DHT22;6141;49.092;8.516;2023-05-08T10:03:15;19.70;60.50
12156;DHT22;6141;49.092;8.516;2023-05-08T10:05:54;19.90;59.10
12156;DHT22;6141;49.092;8.516;2023-05-08T10:08:42;19.90;59.80
12156;DHT22;6141;49.092;8.516;2023-05-08T10:11:29;19.90;59.20
12156;DHT22;6141;49.092;8.516;2023-05-08T10:14:16;19.80;59.60
12156;DHT22;6141;49.092;8.516;2023-05-08T10:16:50;19.50;60.90
12156;DHT22;6141;49.092;8.516;2023-05-08T10:19:21;19.50;62.50
12156;DHT22;6141;49.092;8.516;2023-05-08T10:21:53;19.30;62.70
12156;DHT22;6141;49.092;8.516;2023-05-08T10:24:27;19.30;62.80
12156;DHT22;6141;49.092;8.516;2023-05-08T10:27:03;18.90;63.80
12156;DHT22;6141;49.092;8.516;2023-05-08T10:29:41;19.00;65.00
12156;DHT22;6141;49.092;8.516;2023-05-08T10:32:14;19.40;63.20
12156;DHT22;6141;49.092;8.516;2023-05-08T10:34:51;19.60;62.90
12156;DHT22;6141;49.092;8.516;2023-05-08T10:37:21;19.70;62.30
12156;DHT22;6141;49.092;8.516;2023-05-08T10:39:51;19.70;61.30
12156;DHT22;6141;49.092;8.516;2023-05-08T10:42:21;19.60;62.30
12156;DHT22;6141;49.092;8.516;2023-05-08T10:44:51;19.50;63.40
12156;DHT22;6141;49.092;8.516;2023-05-08T10:47:24;19.40;63.50
12156;DHT22;6141;49.092;8.516;2023-05-08T10:50:00;19.40;62.90
12156;DHT22;6141;49.092;8.516;2023-05-08T10:52:35;19.30;64.60
12156;DHT22;6141;49.092;8.516;2023-05-08T10:55:23;19.50;63.80
12156;DHT22;6141;49.092;8.516;2023-05-08T10:58:01;19.50;64.30
12156;DHT22;6141;49.092;8.516;2023-05-08T11:00:31;19.20;65.10
12156;DHT22;6141;49.092;8.516;2023-05-08T11:03:04;19.40;65.20
12156;DHT22;6141;49.092;8.516;2023-05-08T11:05:47;19.40;65.20
12156;DHT22;6141;49.092;8.516;2023-05-08T11:08:19;19.50;65.30
12156;DHT22;6141;49.092;8.516;2023-05-08T11:10:58;19.40;65.20
12156;DHT22;6141;49.092;8.516;2023-05-08T11:13:31;19.30;65.20
12156;DHT22;6141;49.092;8.516;2023-05-08T11:16:01;19.40;65.80
12156;DHT22;6141;49.092;8.516;2023-05-08T11:18:29;19.40;65.20
12156;DHT22;6141;49.092;8.516;2023-05-08T11:21:19;19.50;65.30
12156;DHT22;6141;49.092;8.516;2023-05-08T11:23:55;19.40;65.20
12156;DHT22;6141;49.092;8.516;2023-05-08T11:26:37;19.50;64.10
12156;DHT22;6141;49.092;8.516;2023-05-08T11:29:15;19.50;64.30
12156;DHT22;6141;49.092;8.516;2023-05-08T11:31:51;19.40;65.20
12156;DHT22;6141;49.092;8.516;2023-05-08T11:34:46;19.50;65.20
12156;DHT22;6141;49.092;8.516;2023-05-08T11:37:17;19.60;64.80
12156;DHT22;6141;49.092;8.516;2023-05-08T11:39:47;19.30;65.40
12156;DHT22;6141;49.092;8.516;2023-05-08T11:42:34;19.10;65.00
12156;DHT22;6141;49.092;8.516;2023-05-08T11:45:04;19.20;67.90
12156;DHT22;6141;49.092;8.516;2023-05-08T11:47:38;19.30;67.80
12156;DHT22;6141;49.092;8.516;2023-05-08T11:50:08;19.30;67.30
12156;DHT22;6141;49.092;8.516;2023-05-08T11:52:38;19.30;67.60
12156;DHT22;6141;49.092;8.516;2023-05-08T11:55:10;19.60;67.10
12156;DHT22;6141;49.092;8.516;2023-05-08T11:57:40;19.70;65.50
12156;DHT22;6141;49.092;8.516;2023-05-08T12:00:10;19.80;65.60
12156;DHT22;6141;49.092;8.516;2023-05-08T12:02:40;19.60;65.60
12156;DHT22;6141;49.092;8.516;2023-05-08T12:05:10;19.70;65.50
12156;DHT22;6141;49.092;8.516;2023-05-08T12:07:42;19.70;65.30
12156;DHT22;6141;49.092;8.516;2023-05-08T12:10:14;19.70;66.10
12156;DHT22;6141;49.092;8.516;2023-05-08T12:12:44;19.90;65.70
12156;DHT22;6141;49.092;8.516;2023-05-08T12:15:14;20.00;65.00
12156;DHT22;6141;49.092;8.516;2023-05-08T12:17:42;19.90;65.70
12156;DHT22;6141;49.092;8.516;2023-05-08T12:20:13;20.10;65.80
12156;DHT22;6141;49.092;8.516;2023-05-08T12:22:48;19.90;65.70
12156;DHT22;6141;49.092;8.516;2023-05-08T12:25:19;19.80;65.60
12156;DHT22;6141;49.092;8.516;2023-05-08T12:27:47;19.80;65.60
12156;DHT22;6141;49.092;8.516;2023-05-08T12:30:17;19.90;65.70
12156;DHT22;6141;49.092;8.516;2023-05-08T12:32:46;19.80;64.80
12156;DHT22;6141;49.092;8.516;2023-05-08T12:35:15;19.80;66.50
12156;DHT22;6141;49.092;8.516;2023-05-08T12:37:44;19.90;65.70
12156;DHT22;6141;49.092;8.516;2023-05-08T12:40:26;19.90;66.40
12156;DHT22;6141;49.092;8.516;2023-05-08T12:42:55;19.90;67.10
12156;DHT22;6141;49.092;8.516;2023-05-08T12:45:25;20.10;65.40
12156;DHT22;6141;49.092;8.516;2023-05-08T12:47:58;20.10;65.50
12156;DHT22;6141;49.092;8.516;2023-05-08T12:50:27;20.20;63.50
12156;DHT22;6141;49.092;8.516;2023-05-08T12:53:01;20.20;65.20
12156;DHT22;6141;49.092;8.516;2023-05-08T12:55:33;20.10;63.10
12156;DHT22;6141;49.092;8.516;2023-05-08T12:58:03;20.00;64.40
12156;DHT22;6141;49.092;8.516;2023-05-08T13:00:38;20.00;65.60
12156;DHT22;6141;49.092;8.516;2023-05-08T13:03:08;19.90;64.00
12156;DHT22;6141;49.092;8.516;2023-05-08T13:05:41;19.90;63.90
12156;DHT22;6141;49.092;8.516;2023-05-08T13:08:09;20.00;65.60
12156;DHT22;6141;49.092;8.516;2023-05-08T13:10:47;20.00;64.10
12156;DHT22;6141;49.092;8.516;2023-05-08T13:13:17;20.00;62.50
12156;DHT22;6141;49.092;8.516;2023-05-08T13:15:47;20.10;63.20
12156;DHT22;6141;49.092;8.516;2023-05-08T13:18:16;20.30;62.50
12156;DHT22;6141;49.092;8.516;2023-05-08T13:20:45;20.50;61.10
12156;DHT22;6141;49.092;8.516;2023-05-08T13:23:14;20.50;62.00
12156;DHT22;6141;49.092;8.516;2023-05-08T13:25:43;20.30;61.00
12156;DHT22;6141;49.092;8.516;2023-05-08T13:28:12;20.40;62.80
12156;DHT22;6141;49.092;8.516;2023-05-08T13:30:41;20.10;60.80
12156;DHT22;6141;49.092;8.516;2023-05-08T13:33:09;20.30;62.20
12156;DHT22;6141;49.092;8.516;2023-05-08T13:35:38;20.50;61.10
12156;DHT22;6141;49.092;8.516;2023-05-08T13:38:06;20.70;59.20
12156;DHT22;6141;49.092;8.516;2023-05-08T13:40:35;20.70;55.50
12156;DHT22;6141;49.092;8.516;2023-05-08T13:43:05;20.70;57.30
12156;DHT22;6141;49.092;8.516;2023-05-08T13:45:36;20.60;57.00
12156;DHT22;6141;49.092;8.516;2023-05-08T13:48:05;20.70;55.50
12156;DHT22;6141;49.092;8.516;2023-05-08T13:50:33;20.70;57.90
12156;DHT22;6141;49.092;8.516;2023-05-08T13:53:03;20.70;57.40
12156;DHT22;6141;49.092;8.516;2023-05-08T13:55:35;20.60;57.40
12156;DHT22;6141;49.092;8.516;2023-05-08T13:58:05;20.50;56.80
12156;DHT22;6141;49.092;8.516;2023-05-08T14:00:34;20.50;57.20
12156;DHT22;6141;49.092;8.516;2023-05-08T14:03:03;20.60;57.40
12156;DHT22;6141;49.092;8.516;2023-05-08T14:05:31;20.40;57.00
12156;DHT22;6141;49.092;8.516;2023-05-08T14:08:01;20.20;59.40
12156;DHT22;6141;49.092;8.516;2023-05-08T14:10:30;20.20;58.60
12156;DHT22;6141;49.092;8.516;2023-05-08T14:12:58;20.20;58.50
12156;DHT22;6141;49.092;8.516;2023-05-08T14:15:28;20.40;57.70
12156;DHT22;6141;49.092;8.516;2023-05-08T14:18:03;20.60;56.00
12156;DHT22;6141;49.092;8.516;2023-05-08T14:20:32;20.90;55.70
12156;DHT22;6141;49.092;8.516;2023-05-08T14:23:00;20.70;55.50
12156;DHT22;6141;49.092;8.516;2023-05-08T14:25:29;20.60;55.30
12156;DHT22;6141;49.092;8.516;2023-05-08T14:27:58;20.50;55.30
12156;DHT22;6141;49.092;8.516;2023-05-08T14:30:28;20.50;57.10
12156;DHT22;6141;49.092;8.516;2023-05-08T14:32:56;20.60;56.60
12156;DHT22;6141;49.092;8.516;2023-05-08T14:35:25;20.70;54.90
12156;DHT22;6141;49.092;8.516;2023-05-08T14:37:53;20.80;55.60
12156;DHT22;6141;49.092;8.516;2023-05-08T14:40:21;20.50;55.30
12156;DHT22;6141;49.092;8.516;2023-05-08T14:42:50;20.70;55.70
12156;DHT22;6141;49.092;8.516;2023-05-08T14:45:21;20.80;55.60
12156;DHT22;6141;49.092;8.516;2023-05-08T14:47:51;20.60;55.10
12156;DHT22;6141;49.092;8.516;2023-05-08T14:50:19;20.70;53.70
12156;DHT22;6141;49.092;8.516;2023-05-08T14:52:50;20.80;55.50
12156;DHT22;6141;49.092;8.516;2023-05-08T14:55:37;20.90;56.10
12156;DHT22;6141;49.092;8.516;2023-05-08T14:58:25;20.60;53.10
12156;DHT22;6141;49.092;8.516;2023-05-08T15:01:14;20.80;55.60
12156;DHT22;6141;49.092;8.516;2023-05-08T15:03:48;20.70;55.50
12156;DHT22;6141;49.092;8.516;2023-05-08T15:06:38;20.70;54.70
12156;DHT22;6141;49.092;8.516;2023-05-08T15:09:13;20.70;54.90
12156;DHT22;6141;49.092;8.516;2023-05-08T15:12:01;20.80;54.80
12156;DHT22;6141;49.092;8.516;2023-05-08T15:14:50;20.90;54.60
12156;DHT22;6141;49.092;8.516;2023-05-08T15:17:40;21.00;53.30
12156;DHT22;6141;49.092;8.516;2023-05-08T15:20:30;21.10;53.90
12156;DHT22;6141;49.092;8.516;2023-05-08T15:23:19;20.90;53.70
12156;DHT22;6141;49.092;8.516;2023-05-08T15:26:07;20.90;54.30
12156;DHT22;6141;49.092;8.516;2023-05-08T15:28:56;20.90;53.70
12156;DHT22;6141;49.092;8.516;2023-05-08T15:31:45;20.90;51.50
12156;DHT22;6141;49.092;8.516;2023-05-08T15:34:14;20.90;52.80
12156;DHT22;6141;49.092;8.516;2023-05-08T15:37:02;20.80;52.80
12156;DHT22;6141;49.092;8.516;2023-05-08T15:39:41;20.90;52.50
12156;DHT22;6141;49.092;8.516;2023-05-08T15:42:12;20.80;53.50
12156;DHT22;6141;49.092;8.516;2023-05-08T15:44:59;20.80;53.60
12156;DHT22;6141;49.092;8.516;2023-05-08T15:47:49;20.60;53.80
12156;DHT22;6141;49.092;8.516;2023-05-08T15:50:17;20.60;53.20
12156;DHT22;6141;49.092;8.516;2023-05-08T15:52:48;20.50;52.80
12156;DHT22;6141;49.092;8.516;2023-05-08T15:55:16;20.70;52.50
12156;DHT22;6141;49.092;8.516;2023-05-08T15:57:46;20.70;52.20
12156;DHT22;6141;49.092;8.516;2023-05-08T16:00:15;20.60;51.80
12156;DHT22;6141;49.092;8.516;2023-05-08T16:02:45;20.60;52.60
12156;DHT22;6141;49.092;8.516;2023-05-08T16:05:13;20.60;51.80
12156;DHT22;6141;49.092;8.516;2023-05-08T16:07:51;20.60;52.60
12156;DHT22;6141;49.092;8.516;2023-05-08T16:10:21;20.70;53.40
12156;DHT22;6141;49.092;8.516;2023-05-08T16:12:50;20.70;53.10
12156;DHT22;6141;49.092;8.516;2023-05-08T16:15:18;20.80;52.80
12156;DHT22;6141;49.092;8.516;2023-05-08T16:17:47;21.00;52.20
12156;DHT22;6141;49.092;8.516;2023-05-08T16:20:17;21.00;52.80
12156;DHT22;6141;49.092;8.516;2023-05-08T16:22:46;20.80;51.60